<?xml version="1.0" encoding="UTF-8" standalone="no" ?>
<gpx xmlns="http://www.topografix.com/GPX/1/1" xmlns:xsi="http://www.w3.org/2001/XMLSchema-instance" xsi:schemaLocation="http://www.topografix.com/GPX/1/1 http://www.topografix.com/GPX/1/1/gpx.xsd" version="1.1" creator="VisuGPX - https://www.visugpx.com">
  <metadata>
    <name>20170121_Rambouillet</name>
    <desc><![CDATA[Entrainement : 20170121_Rambouillet (Sympa) ]]></desc>
  </metadata>
  <trk>
    <name><![CDATA[Trail]]></name>
    <trkseg>
      <trkpt lat="48.63543" lon="1.77527">
        <ele>140</ele>
        <time>2018-05-15T15:21:49.411Z</time>
      </trkpt>
      <trkpt lat="48.63538" lon="1.77527">
        <ele>140</ele>
        <time>2018-05-15T15:21:50.411Z</time>
      </trkpt>
      <trkpt lat="48.63528" lon="1.77526">
        <ele>140</ele>
        <time>2018-05-15T15:21:51.411Z</time>
      </trkpt>
      <trkpt lat="48.6352" lon="1.77519">
        <ele>140</ele>
        <time>2018-05-15T15:21:52.411Z</time>
      </trkpt>
      <trkpt lat="48.6351" lon="1.77515">
        <ele>140</ele>
        <time>2018-05-15T15:21:53.411Z</time>
      </trkpt>
      <trkpt lat="48.63502" lon="1.77508">
        <ele>140</ele>
        <time>2018-05-15T15:21:54.411Z</time>
      </trkpt>
      <trkpt lat="48.63493" lon="1.77502">
        <ele>140</ele>
        <time>2018-05-15T15:21:55.411Z</time>
      </trkpt>
      <trkpt lat="48.63484" lon="1.77499">
        <ele>140</ele>
        <time>2018-05-15T15:21:56.411Z</time>
      </trkpt>
      <trkpt lat="48.63476" lon="1.77493">
        <ele>140</ele>
        <time>2018-05-15T15:21:57.411Z</time>
      </trkpt>
      <trkpt lat="48.63468" lon="1.77482">
        <ele>140</ele>
        <time>2018-05-15T15:21:58.411Z</time>
      </trkpt>
      <trkpt lat="48.63461" lon="1.77474">
        <ele>140</ele>
        <time>2018-05-15T15:21:59.411Z</time>
      </trkpt>
      <trkpt lat="48.63455" lon="1.77463">
        <ele>140</ele>
        <time>2018-05-15T15:22:00.411Z</time>
      </trkpt>
      <trkpt lat="48.63447" lon="1.77456">
        <ele>140</ele>
        <time>2018-05-15T15:22:01.411Z</time>
      </trkpt>
      <trkpt lat="48.63439" lon="1.77446">
        <ele>140</ele>
        <time>2018-05-15T15:22:02.411Z</time>
      </trkpt>
      <trkpt lat="48.63435" lon="1.77433">
        <ele>140</ele>
        <time>2018-05-15T15:22:03.411Z</time>
      </trkpt>
      <trkpt lat="48.63431" lon="1.7742">
        <ele>140</ele>
        <time>2018-05-15T15:22:04.411Z</time>
      </trkpt>
      <trkpt lat="48.63425" lon="1.7741">
        <ele>140</ele>
        <time>2018-05-15T15:22:05.411Z</time>
      </trkpt>
      <trkpt lat="48.63419" lon="1.77399">
        <ele>140</ele>
        <time>2018-05-15T15:22:06.411Z</time>
      </trkpt>
      <trkpt lat="48.6341" lon="1.7739">
        <ele>140</ele>
        <time>2018-05-15T15:22:07.411Z</time>
      </trkpt>
      <trkpt lat="48.63403" lon="1.7738">
        <ele>140</ele>
        <time>2018-05-15T15:22:08.411Z</time>
      </trkpt>
      <trkpt lat="48.63399" lon="1.77371">
        <ele>140</ele>
        <time>2018-05-15T15:22:09.411Z</time>
      </trkpt>
      <trkpt lat="48.63397" lon="1.7736">
        <ele>140</ele>
        <time>2018-05-15T15:22:10.411Z</time>
      </trkpt>
      <trkpt lat="48.63397" lon="1.77355">
        <ele>140</ele>
        <time>2018-05-15T15:22:11.411Z</time>
      </trkpt>
      <trkpt lat="48.63394" lon="1.77341">
        <ele>141.1</ele>
        <time>2018-05-15T15:22:12.411Z</time>
      </trkpt>
      <trkpt lat="48.63394" lon="1.77327">
        <ele>144.1</ele>
        <time>2018-05-15T15:22:13.411Z</time>
      </trkpt>
      <trkpt lat="48.63396" lon="1.77313">
        <ele>145.4</ele>
        <time>2018-05-15T15:22:14.411Z</time>
      </trkpt>
      <trkpt lat="48.63397" lon="1.773">
        <ele>146</ele>
        <time>2018-05-15T15:22:15.411Z</time>
      </trkpt>
      <trkpt lat="48.63398" lon="1.77286">
        <ele>146.8</ele>
        <time>2018-05-15T15:22:16.411Z</time>
      </trkpt>
      <trkpt lat="48.63418" lon="1.77197">
        <ele>151.7</ele>
        <time>2018-05-15T15:22:17.411Z</time>
      </trkpt>
      <trkpt lat="48.63433" lon="1.77118">
        <ele>150.4</ele>
        <time>2018-05-15T15:22:18.411Z</time>
      </trkpt>
      <trkpt lat="48.63482" lon="1.77107">
        <ele>141.3</ele>
        <time>2018-05-15T15:22:19.411Z</time>
      </trkpt>
      <trkpt lat="48.63569" lon="1.7707">
        <ele>140</ele>
        <time>2018-05-15T15:22:20.411Z</time>
      </trkpt>
      <trkpt lat="48.6361" lon="1.77158">
        <ele>140.7</ele>
        <time>2018-05-15T15:22:21.411Z</time>
      </trkpt>
      <trkpt lat="48.6367" lon="1.77165">
        <ele>143.5</ele>
        <time>2018-05-15T15:22:22.411Z</time>
      </trkpt>
      <trkpt lat="48.63736" lon="1.77145">
        <ele>149</ele>
        <time>2018-05-15T15:22:23.411Z</time>
      </trkpt>
      <trkpt lat="48.63803" lon="1.77125">
        <ele>148</ele>
        <time>2018-05-15T15:22:24.411Z</time>
      </trkpt>
      <trkpt lat="48.63866" lon="1.77117">
        <ele>144</ele>
        <time>2018-05-15T15:22:25.411Z</time>
      </trkpt>
      <trkpt lat="48.64028" lon="1.77">
        <ele>144.9</ele>
        <time>2018-05-15T15:22:26.411Z</time>
      </trkpt>
      <trkpt lat="48.64065" lon="1.76952">
        <ele>146.8</ele>
        <time>2018-05-15T15:22:27.411Z</time>
      </trkpt>
      <trkpt lat="48.64135" lon="1.76861">
        <ele>148</ele>
        <time>2018-05-15T15:22:28.411Z</time>
      </trkpt>
      <trkpt lat="48.64164" lon="1.76766">
        <ele>149</ele>
        <time>2018-05-15T15:22:29.411Z</time>
      </trkpt>
      <trkpt lat="48.64365" lon="1.76596">
        <ele>145</ele>
        <time>2018-05-15T15:22:30.411Z</time>
      </trkpt>
      <trkpt lat="48.6437" lon="1.7651">
        <ele>144</ele>
        <time>2018-05-15T15:22:31.411Z</time>
      </trkpt>
      <trkpt lat="48.64379" lon="1.76411">
        <ele>144</ele>
        <time>2018-05-15T15:22:32.411Z</time>
      </trkpt>
      <trkpt lat="48.64393" lon="1.7632">
        <ele>147.7</ele>
        <time>2018-05-15T15:22:33.411Z</time>
      </trkpt>
      <trkpt lat="48.64427" lon="1.76235">
        <ele>149</ele>
        <time>2018-05-15T15:22:34.411Z</time>
      </trkpt>
      <trkpt lat="48.6446" lon="1.76137">
        <ele>150</ele>
        <time>2018-05-15T15:22:35.411Z</time>
      </trkpt>
      <trkpt lat="48.64496" lon="1.76042">
        <ele>151</ele>
        <time>2018-05-15T15:22:36.411Z</time>
      </trkpt>
      <trkpt lat="48.64537" lon="1.75949">
        <ele>154</ele>
        <time>2018-05-15T15:22:37.411Z</time>
      </trkpt>
      <trkpt lat="48.64571" lon="1.75855">
        <ele>156</ele>
        <time>2018-05-15T15:22:38.411Z</time>
      </trkpt>
      <trkpt lat="48.64606" lon="1.75781">
        <ele>160.7</ele>
        <time>2018-05-15T15:22:39.411Z</time>
      </trkpt>
      <trkpt lat="48.64667" lon="1.75682">
        <ele>167.4</ele>
        <time>2018-05-15T15:22:40.411Z</time>
      </trkpt>
      <trkpt lat="48.64716" lon="1.75595">
        <ele>174</ele>
        <time>2018-05-15T15:22:41.411Z</time>
      </trkpt>
      <trkpt lat="48.64748" lon="1.75623">
        <ele>174</ele>
        <time>2018-05-15T15:22:42.411Z</time>
      </trkpt>
      <trkpt lat="48.648" lon="1.75656">
        <ele>170.7</ele>
        <time>2018-05-15T15:22:43.411Z</time>
      </trkpt>
      <trkpt lat="48.64846" lon="1.7575">
        <ele>170</ele>
        <time>2018-05-15T15:22:44.411Z</time>
      </trkpt>
      <trkpt lat="48.64932" lon="1.75764">
        <ele>170.7</ele>
        <time>2018-05-15T15:22:45.411Z</time>
      </trkpt>
      <trkpt lat="48.64976" lon="1.75734">
        <ele>173</ele>
        <time>2018-05-15T15:22:46.411Z</time>
      </trkpt>
      <trkpt lat="48.64949" lon="1.75647">
        <ele>173</ele>
        <time>2018-05-15T15:22:47.411Z</time>
      </trkpt>
      <trkpt lat="48.64976" lon="1.75573">
        <ele>175</ele>
        <time>2018-05-15T15:22:48.411Z</time>
      </trkpt>
      <trkpt lat="48.65024" lon="1.75479">
        <ele>175</ele>
        <time>2018-05-15T15:22:49.411Z</time>
      </trkpt>
      <trkpt lat="48.65069" lon="1.75379">
        <ele>172</ele>
        <time>2018-05-15T15:22:50.411Z</time>
      </trkpt>
      <trkpt lat="48.65115" lon="1.75307">
        <ele>170</ele>
        <time>2018-05-15T15:22:51.411Z</time>
      </trkpt>
      <trkpt lat="48.65158" lon="1.75216">
        <ele>168</ele>
        <time>2018-05-15T15:22:52.411Z</time>
      </trkpt>
      <trkpt lat="48.65211" lon="1.75112">
        <ele>169</ele>
        <time>2018-05-15T15:22:53.411Z</time>
      </trkpt>
      <trkpt lat="48.6527" lon="1.75016">
        <ele>169.7</ele>
        <time>2018-05-15T15:22:54.411Z</time>
      </trkpt>
      <trkpt lat="48.6532" lon="1.74911">
        <ele>170</ele>
        <time>2018-05-15T15:22:55.411Z</time>
      </trkpt>
      <trkpt lat="48.65374" lon="1.74807">
        <ele>169</ele>
        <time>2018-05-15T15:22:56.411Z</time>
      </trkpt>
      <trkpt lat="48.65423" lon="1.74711">
        <ele>171</ele>
        <time>2018-05-15T15:22:57.411Z</time>
      </trkpt>
      <trkpt lat="48.65495" lon="1.74622">
        <ele>173</ele>
        <time>2018-05-15T15:22:58.411Z</time>
      </trkpt>
      <trkpt lat="48.65556" lon="1.74616">
        <ele>173</ele>
        <time>2018-05-15T15:22:59.411Z</time>
      </trkpt>
      <trkpt lat="48.65592" lon="1.74712">
        <ele>172</ele>
        <time>2018-05-15T15:23:00.411Z</time>
      </trkpt>
      <trkpt lat="48.65667" lon="1.7474">
        <ele>171</ele>
        <time>2018-05-15T15:23:01.411Z</time>
      </trkpt>
      <trkpt lat="48.65698" lon="1.74675">
        <ele>171</ele>
        <time>2018-05-15T15:23:02.411Z</time>
      </trkpt>
      <trkpt lat="48.65743" lon="1.74567">
        <ele>170.7</ele>
        <time>2018-05-15T15:23:03.411Z</time>
      </trkpt>
      <trkpt lat="48.65778" lon="1.74525">
        <ele>170.7</ele>
        <time>2018-05-15T15:23:04.411Z</time>
      </trkpt>
      <trkpt lat="48.65851" lon="1.74468">
        <ele>171</ele>
        <time>2018-05-15T15:23:05.411Z</time>
      </trkpt>
      <trkpt lat="48.65925" lon="1.74408">
        <ele>171</ele>
        <time>2018-05-15T15:23:06.411Z</time>
      </trkpt>
      <trkpt lat="48.65979" lon="1.74371">
        <ele>171</ele>
        <time>2018-05-15T15:23:07.411Z</time>
      </trkpt>
      <trkpt lat="48.6604" lon="1.74287">
        <ele>171</ele>
        <time>2018-05-15T15:23:08.411Z</time>
      </trkpt>
      <trkpt lat="48.66083" lon="1.74188">
        <ele>171</ele>
        <time>2018-05-15T15:23:09.411Z</time>
      </trkpt>
      <trkpt lat="48.66131" lon="1.74102">
        <ele>171</ele>
        <time>2018-05-15T15:23:10.411Z</time>
      </trkpt>
      <trkpt lat="48.6621" lon="1.7404">
        <ele>171</ele>
        <time>2018-05-15T15:23:11.411Z</time>
      </trkpt>
      <trkpt lat="48.66277" lon="1.74053">
        <ele>162</ele>
        <time>2018-05-15T15:23:12.411Z</time>
      </trkpt>
      <trkpt lat="48.66326" lon="1.73984">
        <ele>159.3</ele>
        <time>2018-05-15T15:23:13.411Z</time>
      </trkpt>
      <trkpt lat="48.66415" lon="1.73852">
        <ele>157</ele>
        <time>2018-05-15T15:23:14.411Z</time>
      </trkpt>
      <trkpt lat="48.66443" lon="1.73779">
        <ele>154.7</ele>
        <time>2018-05-15T15:23:15.411Z</time>
      </trkpt>
      <trkpt lat="48.66488" lon="1.73706">
        <ele>151</ele>
        <time>2018-05-15T15:23:16.411Z</time>
      </trkpt>
      <trkpt lat="48.66529" lon="1.73619">
        <ele>147.3</ele>
        <time>2018-05-15T15:23:17.411Z</time>
      </trkpt>
      <trkpt lat="48.6657" lon="1.73629">
        <ele>150</ele>
        <time>2018-05-15T15:23:18.411Z</time>
      </trkpt>
      <trkpt lat="48.6661" lon="1.73624">
        <ele>161.8</ele>
        <time>2018-05-15T15:23:19.411Z</time>
      </trkpt>
      <trkpt lat="48.66663" lon="1.73703">
        <ele>173.3</ele>
        <time>2018-05-15T15:23:20.411Z</time>
      </trkpt>
      <trkpt lat="48.66718" lon="1.73749">
        <ele>178</ele>
        <time>2018-05-15T15:23:21.411Z</time>
      </trkpt>
      <trkpt lat="48.66777" lon="1.73766">
        <ele>174</ele>
        <time>2018-05-15T15:23:22.411Z</time>
      </trkpt>
      <trkpt lat="48.66829" lon="1.73717">
        <ele>173.3</ele>
        <time>2018-05-15T15:23:23.411Z</time>
      </trkpt>
      <trkpt lat="48.66873" lon="1.73678">
        <ele>175</ele>
        <time>2018-05-15T15:23:24.411Z</time>
      </trkpt>
      <trkpt lat="48.66958" lon="1.7359">
        <ele>173.2</ele>
        <time>2018-05-15T15:23:25.411Z</time>
      </trkpt>
      <trkpt lat="48.6701" lon="1.73512">
        <ele>173</ele>
        <time>2018-05-15T15:23:26.411Z</time>
      </trkpt>
      <trkpt lat="48.67028" lon="1.73469">
        <ele>172</ele>
        <time>2018-05-15T15:23:27.411Z</time>
      </trkpt>
      <trkpt lat="48.67" lon="1.7341">
        <ele>173</ele>
        <time>2018-05-15T15:23:28.411Z</time>
      </trkpt>
      <trkpt lat="48.67038" lon="1.73434">
        <ele>172</ele>
        <time>2018-05-15T15:23:29.411Z</time>
      </trkpt>
      <trkpt lat="48.67032" lon="1.73385">
        <ele>153.3</ele>
        <time>2018-05-15T15:23:30.411Z</time>
      </trkpt>
      <trkpt lat="48.66981" lon="1.73365">
        <ele>144</ele>
        <time>2018-05-15T15:23:31.411Z</time>
      </trkpt>
      <trkpt lat="48.66899" lon="1.73283">
        <ele>146</ele>
        <time>2018-05-15T15:23:32.411Z</time>
      </trkpt>
      <trkpt lat="48.66823" lon="1.73227">
        <ele>144</ele>
        <time>2018-05-15T15:23:33.411Z</time>
      </trkpt>
      <trkpt lat="48.66747" lon="1.73176">
        <ele>144</ele>
        <time>2018-05-15T15:23:34.411Z</time>
      </trkpt>
      <trkpt lat="48.6671" lon="1.73248">
        <ele>144</ele>
        <time>2018-05-15T15:23:35.411Z</time>
      </trkpt>
      <trkpt lat="48.66657" lon="1.73385">
        <ele>144.7</ele>
        <time>2018-05-15T15:23:36.411Z</time>
      </trkpt>
      <trkpt lat="48.66578" lon="1.73462">
        <ele>149</ele>
        <time>2018-05-15T15:23:37.411Z</time>
      </trkpt>
      <trkpt lat="48.6654" lon="1.73374">
        <ele>155.7</ele>
        <time>2018-05-15T15:23:38.411Z</time>
      </trkpt>
      <trkpt lat="48.66489" lon="1.73247">
        <ele>151.7</ele>
        <time>2018-05-15T15:23:39.411Z</time>
      </trkpt>
      <trkpt lat="48.66451" lon="1.73155">
        <ele>161.6</ele>
        <time>2018-05-15T15:23:40.411Z</time>
      </trkpt>
      <trkpt lat="48.66419" lon="1.73026">
        <ele>157</ele>
        <time>2018-05-15T15:23:41.411Z</time>
      </trkpt>
      <trkpt lat="48.66379" lon="1.72917">
        <ele>151</ele>
        <time>2018-05-15T15:23:42.411Z</time>
      </trkpt>
      <trkpt lat="48.66338" lon="1.72827">
        <ele>154.4</ele>
        <time>2018-05-15T15:23:43.411Z</time>
      </trkpt>
      <trkpt lat="48.66297" lon="1.72706">
        <ele>166</ele>
        <time>2018-05-15T15:23:44.411Z</time>
      </trkpt>
      <trkpt lat="48.6627" lon="1.72623">
        <ele>164</ele>
        <time>2018-05-15T15:23:45.411Z</time>
      </trkpt>
      <trkpt lat="48.66238" lon="1.72497">
        <ele>155.4</ele>
        <time>2018-05-15T15:23:46.411Z</time>
      </trkpt>
      <trkpt lat="48.66218" lon="1.72389">
        <ele>150</ele>
        <time>2018-05-15T15:23:47.411Z</time>
      </trkpt>
      <trkpt lat="48.66213" lon="1.723">
        <ele>149</ele>
        <time>2018-05-15T15:23:48.411Z</time>
      </trkpt>
      <trkpt lat="48.6619" lon="1.72202">
        <ele>147</ele>
        <time>2018-05-15T15:23:49.411Z</time>
      </trkpt>
      <trkpt lat="48.66157" lon="1.72099">
        <ele>143</ele>
        <time>2018-05-15T15:23:50.411Z</time>
      </trkpt>
      <trkpt lat="48.66155" lon="1.71954">
        <ele>145</ele>
        <time>2018-05-15T15:23:51.411Z</time>
      </trkpt>
      <trkpt lat="48.66102" lon="1.71926">
        <ele>147</ele>
        <time>2018-05-15T15:23:52.411Z</time>
      </trkpt>
      <trkpt lat="48.66048" lon="1.71903">
        <ele>148.6</ele>
        <time>2018-05-15T15:23:53.411Z</time>
      </trkpt>
      <trkpt lat="48.66021" lon="1.7186">
        <ele>150</ele>
        <time>2018-05-15T15:23:54.411Z</time>
      </trkpt>
      <trkpt lat="48.65969" lon="1.7184">
        <ele>154</ele>
        <time>2018-05-15T15:23:55.411Z</time>
      </trkpt>
      <trkpt lat="48.6587" lon="1.71873">
        <ele>158.9</ele>
        <time>2018-05-15T15:23:56.411Z</time>
      </trkpt>
      <trkpt lat="48.6582" lon="1.71831">
        <ele>164.3</ele>
        <time>2018-05-15T15:23:57.411Z</time>
      </trkpt>
      <trkpt lat="48.65776" lon="1.71866">
        <ele>172.8</ele>
        <time>2018-05-15T15:23:58.411Z</time>
      </trkpt>
      <trkpt lat="48.65693" lon="1.71869">
        <ele>180</ele>
        <time>2018-05-15T15:23:59.411Z</time>
      </trkpt>
      <trkpt lat="48.65649" lon="1.71824">
        <ele>180</ele>
        <time>2018-05-15T15:24:00.411Z</time>
      </trkpt>
      <trkpt lat="48.65528" lon="1.71779">
        <ele>179</ele>
        <time>2018-05-15T15:24:01.411Z</time>
      </trkpt>
      <trkpt lat="48.65498" lon="1.71728">
        <ele>177.7</ele>
        <time>2018-05-15T15:24:02.411Z</time>
      </trkpt>
      <trkpt lat="48.65456" lon="1.7163">
        <ele>177</ele>
        <time>2018-05-15T15:24:03.411Z</time>
      </trkpt>
      <trkpt lat="48.65428" lon="1.71577">
        <ele>175.6</ele>
        <time>2018-05-15T15:24:04.411Z</time>
      </trkpt>
      <trkpt lat="48.65367" lon="1.71466">
        <ele>176</ele>
        <time>2018-05-15T15:24:05.411Z</time>
      </trkpt>
      <trkpt lat="48.65324" lon="1.71358">
        <ele>174</ele>
        <time>2018-05-15T15:24:06.411Z</time>
      </trkpt>
      <trkpt lat="48.65279" lon="1.71269">
        <ele>173.7</ele>
        <time>2018-05-15T15:24:07.411Z</time>
      </trkpt>
      <trkpt lat="48.65287" lon="1.71203">
        <ele>172</ele>
        <time>2018-05-15T15:24:08.411Z</time>
      </trkpt>
      <trkpt lat="48.65319" lon="1.71099">
        <ele>170</ele>
        <time>2018-05-15T15:24:09.411Z</time>
      </trkpt>
      <trkpt lat="48.65335" lon="1.70996">
        <ele>171</ele>
        <time>2018-05-15T15:24:10.411Z</time>
      </trkpt>
      <trkpt lat="48.65341" lon="1.7087">
        <ele>173.3</ele>
        <time>2018-05-15T15:24:11.411Z</time>
      </trkpt>
      <trkpt lat="48.65347" lon="1.70801">
        <ele>175</ele>
        <time>2018-05-15T15:24:12.411Z</time>
      </trkpt>
      <trkpt lat="48.65394" lon="1.70763">
        <ele>174</ele>
        <time>2018-05-15T15:24:13.411Z</time>
      </trkpt>
      <trkpt lat="48.65465" lon="1.70724">
        <ele>174</ele>
        <time>2018-05-15T15:24:14.411Z</time>
      </trkpt>
      <trkpt lat="48.65507" lon="1.7078">
        <ele>174</ele>
        <time>2018-05-15T15:24:15.411Z</time>
      </trkpt>
      <trkpt lat="48.65545" lon="1.70745">
        <ele>174</ele>
        <time>2018-05-15T15:24:16.411Z</time>
      </trkpt>
      <trkpt lat="48.65567" lon="1.70782">
        <ele>174</ele>
        <time>2018-05-15T15:24:17.411Z</time>
      </trkpt>
      <trkpt lat="48.65618" lon="1.70724">
        <ele>161.3</ele>
        <time>2018-05-15T15:24:18.411Z</time>
      </trkpt>
      <trkpt lat="48.658" lon="1.70479">
        <ele>143.6</ele>
        <time>2018-05-15T15:24:19.411Z</time>
      </trkpt>
      <trkpt lat="48.65892" lon="1.70419">
        <ele>144</ele>
        <time>2018-05-15T15:24:20.411Z</time>
      </trkpt>
      <trkpt lat="48.65806" lon="1.70384">
        <ele>161.7</ele>
        <time>2018-05-15T15:24:21.411Z</time>
      </trkpt>
      <trkpt lat="48.65776" lon="1.70358">
        <ele>167.6</ele>
        <time>2018-05-15T15:24:22.411Z</time>
      </trkpt>
      <trkpt lat="48.65688" lon="1.70276">
        <ele>171.7</ele>
        <time>2018-05-15T15:24:23.411Z</time>
      </trkpt>
      <trkpt lat="48.65614" lon="1.70212">
        <ele>173</ele>
        <time>2018-05-15T15:24:24.411Z</time>
      </trkpt>
      <trkpt lat="48.65543" lon="1.70168">
        <ele>175</ele>
        <time>2018-05-15T15:24:25.411Z</time>
      </trkpt>
      <trkpt lat="48.65485" lon="1.70125">
        <ele>175</ele>
        <time>2018-05-15T15:24:26.411Z</time>
      </trkpt>
      <trkpt lat="48.65431" lon="1.70102">
        <ele>175</ele>
        <time>2018-05-15T15:24:27.411Z</time>
      </trkpt>
      <trkpt lat="48.65365" lon="1.70027">
        <ele>175</ele>
        <time>2018-05-15T15:24:28.411Z</time>
      </trkpt>
      <trkpt lat="48.65291" lon="1.69975">
        <ele>175</ele>
        <time>2018-05-15T15:24:29.411Z</time>
      </trkpt>
      <trkpt lat="48.65219" lon="1.69919">
        <ele>170.3</ele>
        <time>2018-05-15T15:24:30.411Z</time>
      </trkpt>
      <trkpt lat="48.65154" lon="1.69897">
        <ele>170</ele>
        <time>2018-05-15T15:24:31.411Z</time>
      </trkpt>
      <trkpt lat="48.65076" lon="1.6984">
        <ele>168.6</ele>
        <time>2018-05-15T15:24:32.411Z</time>
      </trkpt>
      <trkpt lat="48.64976" lon="1.69704">
        <ele>166</ele>
        <time>2018-05-15T15:24:33.411Z</time>
      </trkpt>
      <trkpt lat="48.64944" lon="1.69654">
        <ele>164</ele>
        <time>2018-05-15T15:24:34.411Z</time>
      </trkpt>
      <trkpt lat="48.64915" lon="1.69545">
        <ele>159</ele>
        <time>2018-05-15T15:24:35.411Z</time>
      </trkpt>
      <trkpt lat="48.64859" lon="1.6945">
        <ele>157.4</ele>
        <time>2018-05-15T15:24:36.411Z</time>
      </trkpt>
      <trkpt lat="48.6482" lon="1.69339">
        <ele>154.4</ele>
        <time>2018-05-15T15:24:37.411Z</time>
      </trkpt>
      <trkpt lat="48.64772" lon="1.69274">
        <ele>152</ele>
        <time>2018-05-15T15:24:38.411Z</time>
      </trkpt>
      <trkpt lat="48.64755" lon="1.69232">
        <ele>150</ele>
        <time>2018-05-15T15:24:39.411Z</time>
      </trkpt>
      <trkpt lat="48.64638" lon="1.69171">
        <ele>148</ele>
        <time>2018-05-15T15:24:40.411Z</time>
      </trkpt>
      <trkpt lat="48.64551" lon="1.69145">
        <ele>144</ele>
        <time>2018-05-15T15:24:41.411Z</time>
      </trkpt>
      <trkpt lat="48.64467" lon="1.69155">
        <ele>141</ele>
        <time>2018-05-15T15:24:42.411Z</time>
      </trkpt>
      <trkpt lat="48.64392" lon="1.69157">
        <ele>139</ele>
        <time>2018-05-15T15:24:43.411Z</time>
      </trkpt>
      <trkpt lat="48.6437" lon="1.69212">
        <ele>142</ele>
        <time>2018-05-15T15:24:44.411Z</time>
      </trkpt>
      <trkpt lat="48.64359" lon="1.6933">
        <ele>146</ele>
        <time>2018-05-15T15:24:45.411Z</time>
      </trkpt>
      <trkpt lat="48.64324" lon="1.69464">
        <ele>153.5</ele>
        <time>2018-05-15T15:24:46.411Z</time>
      </trkpt>
      <trkpt lat="48.64271" lon="1.69501">
        <ele>152</ele>
        <time>2018-05-15T15:24:47.411Z</time>
      </trkpt>
      <trkpt lat="48.64186" lon="1.69404">
        <ele>149.5</ele>
        <time>2018-05-15T15:24:48.411Z</time>
      </trkpt>
      <trkpt lat="48.64126" lon="1.69329">
        <ele>147</ele>
        <time>2018-05-15T15:24:49.411Z</time>
      </trkpt>
      <trkpt lat="48.64086" lon="1.69277">
        <ele>145</ele>
        <time>2018-05-15T15:24:50.411Z</time>
      </trkpt>
      <trkpt lat="48.64022" lon="1.69171">
        <ele>142.7</ele>
        <time>2018-05-15T15:24:51.411Z</time>
      </trkpt>
      <trkpt lat="48.64016" lon="1.69213">
        <ele>142</ele>
        <time>2018-05-15T15:24:52.411Z</time>
      </trkpt>
      <trkpt lat="48.63998" lon="1.69314">
        <ele>143.6</ele>
        <time>2018-05-15T15:24:53.411Z</time>
      </trkpt>
      <trkpt lat="48.63992" lon="1.69418">
        <ele>145.5</ele>
        <time>2018-05-15T15:24:54.411Z</time>
      </trkpt>
      <trkpt lat="48.63963" lon="1.69479">
        <ele>147.7</ele>
        <time>2018-05-15T15:24:55.411Z</time>
      </trkpt>
      <trkpt lat="48.63964" lon="1.69562">
        <ele>150.7</ele>
        <time>2018-05-15T15:24:56.411Z</time>
      </trkpt>
      <trkpt lat="48.63931" lon="1.69642">
        <ele>151.7</ele>
        <time>2018-05-15T15:24:57.411Z</time>
      </trkpt>
      <trkpt lat="48.63934" lon="1.69758">
        <ele>149</ele>
        <time>2018-05-15T15:24:58.411Z</time>
      </trkpt>
      <trkpt lat="48.63901" lon="1.69711">
        <ele>144</ele>
        <time>2018-05-15T15:24:59.411Z</time>
      </trkpt>
      <trkpt lat="48.63854" lon="1.69703">
        <ele>144.7</ele>
        <time>2018-05-15T15:25:00.411Z</time>
      </trkpt>
      <trkpt lat="48.63806" lon="1.69627">
        <ele>145.2</ele>
        <time>2018-05-15T15:25:01.411Z</time>
      </trkpt>
      <trkpt lat="48.63755" lon="1.69595">
        <ele>146</ele>
        <time>2018-05-15T15:25:02.411Z</time>
      </trkpt>
      <trkpt lat="48.63723" lon="1.69507">
        <ele>146.6</ele>
        <time>2018-05-15T15:25:03.411Z</time>
      </trkpt>
      <trkpt lat="48.63679" lon="1.6945">
        <ele>148</ele>
        <time>2018-05-15T15:25:04.411Z</time>
      </trkpt>
      <trkpt lat="48.63644" lon="1.69344">
        <ele>150</ele>
        <time>2018-05-15T15:25:05.411Z</time>
      </trkpt>
      <trkpt lat="48.63634" lon="1.69222">
        <ele>149</ele>
        <time>2018-05-15T15:25:06.411Z</time>
      </trkpt>
      <trkpt lat="48.63489" lon="1.69149">
        <ele>147</ele>
        <time>2018-05-15T15:25:07.411Z</time>
      </trkpt>
      <trkpt lat="48.63448" lon="1.6907">
        <ele>144</ele>
        <time>2018-05-15T15:25:08.411Z</time>
      </trkpt>
      <trkpt lat="48.63418" lon="1.68971">
        <ele>142</ele>
        <time>2018-05-15T15:25:09.411Z</time>
      </trkpt>
      <trkpt lat="48.63394" lon="1.68877">
        <ele>138.6</ele>
        <time>2018-05-15T15:25:10.411Z</time>
      </trkpt>
      <trkpt lat="48.6336" lon="1.68904">
        <ele>143</ele>
        <time>2018-05-15T15:25:11.411Z</time>
      </trkpt>
      <trkpt lat="48.6323" lon="1.68913">
        <ele>148.9</ele>
        <time>2018-05-15T15:25:12.411Z</time>
      </trkpt>
      <trkpt lat="48.63209" lon="1.68968">
        <ele>152.7</ele>
        <time>2018-05-15T15:25:13.411Z</time>
      </trkpt>
      <trkpt lat="48.63145" lon="1.69117">
        <ele>156.8</ele>
        <time>2018-05-15T15:25:14.411Z</time>
      </trkpt>
      <trkpt lat="48.63087" lon="1.6928">
        <ele>162.4</ele>
        <time>2018-05-15T15:25:15.411Z</time>
      </trkpt>
      <trkpt lat="48.63061" lon="1.69378">
        <ele>170.3</ele>
        <time>2018-05-15T15:25:16.411Z</time>
      </trkpt>
      <trkpt lat="48.63082" lon="1.69447">
        <ele>175.7</ele>
        <time>2018-05-15T15:25:17.411Z</time>
      </trkpt>
      <trkpt lat="48.63083" lon="1.69564">
        <ele>178</ele>
        <time>2018-05-15T15:25:18.411Z</time>
      </trkpt>
      <trkpt lat="48.63077" lon="1.69748">
        <ele>178</ele>
        <time>2018-05-15T15:25:19.411Z</time>
      </trkpt>
      <trkpt lat="48.63062" lon="1.69795">
        <ele>178</ele>
        <time>2018-05-15T15:25:20.411Z</time>
      </trkpt>
      <trkpt lat="48.63024" lon="1.69842">
        <ele>177.6</ele>
        <time>2018-05-15T15:25:21.411Z</time>
      </trkpt>
      <trkpt lat="48.62963" lon="1.69963">
        <ele>177.7</ele>
        <time>2018-05-15T15:25:22.411Z</time>
      </trkpt>
      <trkpt lat="48.6292" lon="1.70057">
        <ele>178</ele>
        <time>2018-05-15T15:25:23.411Z</time>
      </trkpt>
      <trkpt lat="48.62875" lon="1.7018">
        <ele>177</ele>
        <time>2018-05-15T15:25:24.411Z</time>
      </trkpt>
      <trkpt lat="48.6278" lon="1.7023">
        <ele>175</ele>
        <time>2018-05-15T15:25:25.411Z</time>
      </trkpt>
      <trkpt lat="48.6272" lon="1.70234">
        <ele>173</ele>
        <time>2018-05-15T15:25:26.411Z</time>
      </trkpt>
      <trkpt lat="48.62658" lon="1.702">
        <ele>170</ele>
        <time>2018-05-15T15:25:27.411Z</time>
      </trkpt>
      <trkpt lat="48.62593" lon="1.702">
        <ele>169</ele>
        <time>2018-05-15T15:25:28.411Z</time>
      </trkpt>
      <trkpt lat="48.62535" lon="1.70225">
        <ele>169</ele>
        <time>2018-05-15T15:25:29.411Z</time>
      </trkpt>
      <trkpt lat="48.62461" lon="1.70378">
        <ele>170.3</ele>
        <time>2018-05-15T15:25:30.411Z</time>
      </trkpt>
      <trkpt lat="48.62423" lon="1.7045">
        <ele>172</ele>
        <time>2018-05-15T15:25:31.411Z</time>
      </trkpt>
      <trkpt lat="48.62383" lon="1.70509">
        <ele>170</ele>
        <time>2018-05-15T15:25:32.411Z</time>
      </trkpt>
      <trkpt lat="48.62376" lon="1.70575">
        <ele>170</ele>
        <time>2018-05-15T15:25:33.411Z</time>
      </trkpt>
      <trkpt lat="48.62397" lon="1.70645">
        <ele>170</ele>
        <time>2018-05-15T15:25:34.411Z</time>
      </trkpt>
      <trkpt lat="48.62429" lon="1.70721">
        <ele>171</ele>
        <time>2018-05-15T15:25:35.411Z</time>
      </trkpt>
      <trkpt lat="48.62456" lon="1.70765">
        <ele>173.6</ele>
        <time>2018-05-15T15:25:36.411Z</time>
      </trkpt>
      <trkpt lat="48.62505" lon="1.70829">
        <ele>175</ele>
        <time>2018-05-15T15:25:37.411Z</time>
      </trkpt>
      <trkpt lat="48.62544" lon="1.70797">
        <ele>175</ele>
        <time>2018-05-15T15:25:38.411Z</time>
      </trkpt>
      <trkpt lat="48.62575" lon="1.70878">
        <ele>172.2</ele>
        <time>2018-05-15T15:25:39.411Z</time>
      </trkpt>
      <trkpt lat="48.62576" lon="1.7093">
        <ele>163</ele>
        <time>2018-05-15T15:25:40.411Z</time>
      </trkpt>
      <trkpt lat="48.6254" lon="1.70878">
        <ele>153</ele>
        <time>2018-05-15T15:25:41.411Z</time>
      </trkpt>
      <trkpt lat="48.62494" lon="1.70827">
        <ele>146</ele>
        <time>2018-05-15T15:25:42.411Z</time>
      </trkpt>
      <trkpt lat="48.62032" lon="1.70817">
        <ele>146</ele>
        <time>2018-05-15T15:25:43.411Z</time>
      </trkpt>
      <trkpt lat="48.62048" lon="1.70879">
        <ele>147</ele>
        <time>2018-05-15T15:25:44.411Z</time>
      </trkpt>
      <trkpt lat="48.62094" lon="1.7096">
        <ele>146</ele>
        <time>2018-05-15T15:25:45.411Z</time>
      </trkpt>
      <trkpt lat="48.6213" lon="1.71056">
        <ele>146.8</ele>
        <time>2018-05-15T15:25:46.411Z</time>
      </trkpt>
      <trkpt lat="48.62164" lon="1.71158">
        <ele>149.7</ele>
        <time>2018-05-15T15:25:47.411Z</time>
      </trkpt>
      <trkpt lat="48.62201" lon="1.71252">
        <ele>150</ele>
        <time>2018-05-15T15:25:48.411Z</time>
      </trkpt>
      <trkpt lat="48.62252" lon="1.71321">
        <ele>152.3</ele>
        <time>2018-05-15T15:25:49.411Z</time>
      </trkpt>
      <trkpt lat="48.62303" lon="1.71424">
        <ele>154</ele>
        <time>2018-05-15T15:25:50.411Z</time>
      </trkpt>
      <trkpt lat="48.62357" lon="1.71505">
        <ele>156</ele>
        <time>2018-05-15T15:25:51.411Z</time>
      </trkpt>
      <trkpt lat="48.62375" lon="1.71544">
        <ele>156</ele>
        <time>2018-05-15T15:25:52.411Z</time>
      </trkpt>
      <trkpt lat="48.62377" lon="1.71616">
        <ele>156</ele>
        <time>2018-05-15T15:25:53.411Z</time>
      </trkpt>
      <trkpt lat="48.62399" lon="1.71781">
        <ele>158</ele>
        <time>2018-05-15T15:25:54.411Z</time>
      </trkpt>
      <trkpt lat="48.6242" lon="1.71868">
        <ele>160</ele>
        <time>2018-05-15T15:25:55.411Z</time>
      </trkpt>
      <trkpt lat="48.62436" lon="1.71975">
        <ele>160.6</ele>
        <time>2018-05-15T15:25:56.411Z</time>
      </trkpt>
      <trkpt lat="48.62401" lon="1.72078">
        <ele>164.3</ele>
        <time>2018-05-15T15:25:57.411Z</time>
      </trkpt>
      <trkpt lat="48.62358" lon="1.7208">
        <ele>173</ele>
        <time>2018-05-15T15:25:58.411Z</time>
      </trkpt>
      <trkpt lat="48.6229" lon="1.72015">
        <ele>175</ele>
        <time>2018-05-15T15:25:59.411Z</time>
      </trkpt>
      <trkpt lat="48.62228" lon="1.71972">
        <ele>176.7</ele>
        <time>2018-05-15T15:26:00.411Z</time>
      </trkpt>
      <trkpt lat="48.62147" lon="1.71979">
        <ele>177</ele>
        <time>2018-05-15T15:26:01.411Z</time>
      </trkpt>
      <trkpt lat="48.62083" lon="1.71998">
        <ele>175</ele>
        <time>2018-05-15T15:26:02.411Z</time>
      </trkpt>
      <trkpt lat="48.6201" lon="1.71997">
        <ele>174</ele>
        <time>2018-05-15T15:26:03.411Z</time>
      </trkpt>
      <trkpt lat="48.61934" lon="1.71958">
        <ele>173</ele>
        <time>2018-05-15T15:26:04.411Z</time>
      </trkpt>
      <trkpt lat="48.61849" lon="1.71928">
        <ele>170</ele>
        <time>2018-05-15T15:26:05.411Z</time>
      </trkpt>
      <trkpt lat="48.61734" lon="1.7194">
        <ele>157.5</ele>
        <time>2018-05-15T15:26:06.411Z</time>
      </trkpt>
      <trkpt lat="48.61684" lon="1.7193">
        <ele>150.3</ele>
        <time>2018-05-15T15:26:07.411Z</time>
      </trkpt>
      <trkpt lat="48.61625" lon="1.71927">
        <ele>140</ele>
        <time>2018-05-15T15:26:08.411Z</time>
      </trkpt>
      <trkpt lat="48.61591" lon="1.71957">
        <ele>138</ele>
        <time>2018-05-15T15:26:09.411Z</time>
      </trkpt>
      <trkpt lat="48.61599" lon="1.72029">
        <ele>137</ele>
        <time>2018-05-15T15:26:10.411Z</time>
      </trkpt>
      <trkpt lat="48.6159" lon="1.7212">
        <ele>135.8</ele>
        <time>2018-05-15T15:26:11.411Z</time>
      </trkpt>
      <trkpt lat="48.61554" lon="1.72192">
        <ele>135.5</ele>
        <time>2018-05-15T15:26:12.411Z</time>
      </trkpt>
      <trkpt lat="48.61555" lon="1.72255">
        <ele>135</ele>
        <time>2018-05-15T15:26:13.411Z</time>
      </trkpt>
      <trkpt lat="48.61533" lon="1.7223">
        <ele>136</ele>
        <time>2018-05-15T15:26:14.411Z</time>
      </trkpt>
      <trkpt lat="48.61481" lon="1.72255">
        <ele>134.6</ele>
        <time>2018-05-15T15:26:15.411Z</time>
      </trkpt>
      <trkpt lat="48.61421" lon="1.7235">
        <ele>137</ele>
        <time>2018-05-15T15:26:16.411Z</time>
      </trkpt>
      <trkpt lat="48.61441" lon="1.7241">
        <ele>137.4</ele>
        <time>2018-05-15T15:26:17.411Z</time>
      </trkpt>
      <trkpt lat="48.61488" lon="1.72504">
        <ele>136</ele>
        <time>2018-05-15T15:26:18.411Z</time>
      </trkpt>
      <trkpt lat="48.6153" lon="1.72597">
        <ele>136</ele>
        <time>2018-05-15T15:26:19.411Z</time>
      </trkpt>
      <trkpt lat="48.61569" lon="1.72707">
        <ele>136</ele>
        <time>2018-05-15T15:26:20.411Z</time>
      </trkpt>
      <trkpt lat="48.61592" lon="1.72754">
        <ele>136</ele>
        <time>2018-05-15T15:26:21.411Z</time>
      </trkpt>
      <trkpt lat="48.61618" lon="1.7287">
        <ele>137</ele>
        <time>2018-05-15T15:26:22.411Z</time>
      </trkpt>
      <trkpt lat="48.6165" lon="1.72938">
        <ele>142</ele>
        <time>2018-05-15T15:26:23.411Z</time>
      </trkpt>
      <trkpt lat="48.6171" lon="1.7306">
        <ele>146.9</ele>
        <time>2018-05-15T15:26:24.411Z</time>
      </trkpt>
      <trkpt lat="48.6175" lon="1.7317">
        <ele>145</ele>
        <time>2018-05-15T15:26:25.411Z</time>
      </trkpt>
      <trkpt lat="48.6177" lon="1.73323">
        <ele>138.2</ele>
        <time>2018-05-15T15:26:26.411Z</time>
      </trkpt>
      <trkpt lat="48.61811" lon="1.73394">
        <ele>137</ele>
        <time>2018-05-15T15:26:27.411Z</time>
      </trkpt>
      <trkpt lat="48.61857" lon="1.73487">
        <ele>136.6</ele>
        <time>2018-05-15T15:26:28.411Z</time>
      </trkpt>
      <trkpt lat="48.61901" lon="1.73588">
        <ele>138</ele>
        <time>2018-05-15T15:26:29.411Z</time>
      </trkpt>
      <trkpt lat="48.61958" lon="1.73695">
        <ele>137</ele>
        <time>2018-05-15T15:26:30.411Z</time>
      </trkpt>
      <trkpt lat="48.61993" lon="1.73828">
        <ele>136</ele>
        <time>2018-05-15T15:26:31.411Z</time>
      </trkpt>
      <trkpt lat="48.62033" lon="1.7387">
        <ele>136.6</ele>
        <time>2018-05-15T15:26:32.411Z</time>
      </trkpt>
      <trkpt lat="48.62109" lon="1.73949">
        <ele>136</ele>
        <time>2018-05-15T15:26:33.411Z</time>
      </trkpt>
      <trkpt lat="48.62166" lon="1.74033">
        <ele>136</ele>
        <time>2018-05-15T15:26:34.411Z</time>
      </trkpt>
      <trkpt lat="48.62227" lon="1.74088">
        <ele>136</ele>
        <time>2018-05-15T15:26:35.411Z</time>
      </trkpt>
      <trkpt lat="48.62313" lon="1.74137">
        <ele>139</ele>
        <time>2018-05-15T15:26:36.411Z</time>
      </trkpt>
      <trkpt lat="48.62359" lon="1.74203">
        <ele>138</ele>
        <time>2018-05-15T15:26:37.411Z</time>
      </trkpt>
      <trkpt lat="48.62397" lon="1.74271">
        <ele>138</ele>
        <time>2018-05-15T15:26:38.411Z</time>
      </trkpt>
      <trkpt lat="48.62413" lon="1.7433">
        <ele>138.6</ele>
        <time>2018-05-15T15:26:39.411Z</time>
      </trkpt>
      <trkpt lat="48.62426" lon="1.7437">
        <ele>139</ele>
        <time>2018-05-15T15:26:40.411Z</time>
      </trkpt>
      <trkpt lat="48.62469" lon="1.74473">
        <ele>139</ele>
        <time>2018-05-15T15:26:41.411Z</time>
      </trkpt>
      <trkpt lat="48.62515" lon="1.74578">
        <ele>139</ele>
        <time>2018-05-15T15:26:42.411Z</time>
      </trkpt>
      <trkpt lat="48.62557" lon="1.74676">
        <ele>139</ele>
        <time>2018-05-15T15:26:43.411Z</time>
      </trkpt>
      <trkpt lat="48.62585" lon="1.74788">
        <ele>139</ele>
        <time>2018-05-15T15:26:44.411Z</time>
      </trkpt>
      <trkpt lat="48.62629" lon="1.74899">
        <ele>139</ele>
        <time>2018-05-15T15:26:45.411Z</time>
      </trkpt>
      <trkpt lat="48.62659" lon="1.74962">
        <ele>139</ele>
        <time>2018-05-15T15:26:46.411Z</time>
      </trkpt>
      <trkpt lat="48.62663" lon="1.75063">
        <ele>139</ele>
        <time>2018-05-15T15:26:47.411Z</time>
      </trkpt>
      <trkpt lat="48.62704" lon="1.752">
        <ele>139</ele>
        <time>2018-05-15T15:26:48.411Z</time>
      </trkpt>
      <trkpt lat="48.62725" lon="1.75288">
        <ele>144</ele>
        <time>2018-05-15T15:26:49.411Z</time>
      </trkpt>
      <trkpt lat="48.62737" lon="1.75393">
        <ele>147.8</ele>
        <time>2018-05-15T15:26:50.411Z</time>
      </trkpt>
      <trkpt lat="48.62737" lon="1.75468">
        <ele>151.8</ele>
        <time>2018-05-15T15:26:51.411Z</time>
      </trkpt>
      <trkpt lat="48.62741" lon="1.75593">
        <ele>159.9</ele>
        <time>2018-05-15T15:26:52.411Z</time>
      </trkpt>
      <trkpt lat="48.62702" lon="1.75708">
        <ele>157.9</ele>
        <time>2018-05-15T15:26:53.411Z</time>
      </trkpt>
      <trkpt lat="48.62619" lon="1.75978">
        <ele>154.1</ele>
        <time>2018-05-15T15:26:54.411Z</time>
      </trkpt>
      <trkpt lat="48.62571" lon="1.75998">
        <ele>156</ele>
        <time>2018-05-15T15:26:55.411Z</time>
      </trkpt>
      <trkpt lat="48.62544" lon="1.76063">
        <ele>158.8</ele>
        <time>2018-05-15T15:26:56.411Z</time>
      </trkpt>
      <trkpt lat="48.62536" lon="1.7613">
        <ele>162</ele>
        <time>2018-05-15T15:26:57.411Z</time>
      </trkpt>
      <trkpt lat="48.62557" lon="1.76219">
        <ele>162.7</ele>
        <time>2018-05-15T15:26:58.411Z</time>
      </trkpt>
      <trkpt lat="48.62617" lon="1.76278">
        <ele>165</ele>
        <time>2018-05-15T15:26:59.411Z</time>
      </trkpt>
      <trkpt lat="48.62678" lon="1.76364">
        <ele>167</ele>
        <time>2018-05-15T15:27:00.411Z</time>
      </trkpt>
      <trkpt lat="48.62726" lon="1.76442">
        <ele>166</ele>
        <time>2018-05-15T15:27:01.411Z</time>
      </trkpt>
      <trkpt lat="48.62763" lon="1.76638">
        <ele>167.6</ele>
        <time>2018-05-15T15:27:02.411Z</time>
      </trkpt>
      <trkpt lat="48.62803" lon="1.76684">
        <ele>170</ele>
        <time>2018-05-15T15:27:03.411Z</time>
      </trkpt>
      <trkpt lat="48.62877" lon="1.76723">
        <ele>171</ele>
        <time>2018-05-15T15:27:04.411Z</time>
      </trkpt>
      <trkpt lat="48.62937" lon="1.76736">
        <ele>170</ele>
        <time>2018-05-15T15:27:05.411Z</time>
      </trkpt>
      <trkpt lat="48.6298" lon="1.76752">
        <ele>171</ele>
        <time>2018-05-15T15:27:06.411Z</time>
      </trkpt>
      <trkpt lat="48.63053" lon="1.76747">
        <ele>170</ele>
        <time>2018-05-15T15:27:07.411Z</time>
      </trkpt>
      <trkpt lat="48.63115" lon="1.76722">
        <ele>168</ele>
        <time>2018-05-15T15:27:08.411Z</time>
      </trkpt>
      <trkpt lat="48.63206" lon="1.76689">
        <ele>167</ele>
        <time>2018-05-15T15:27:09.411Z</time>
      </trkpt>
      <trkpt lat="48.63253" lon="1.7675">
        <ele>163</ele>
        <time>2018-05-15T15:27:10.411Z</time>
      </trkpt>
      <trkpt lat="48.63298" lon="1.76822">
        <ele>160</ele>
        <time>2018-05-15T15:27:11.411Z</time>
      </trkpt>
      <trkpt lat="48.63335" lon="1.76883">
        <ele>157</ele>
        <time>2018-05-15T15:27:12.411Z</time>
      </trkpt>
      <trkpt lat="48.63356" lon="1.76943">
        <ele>157</ele>
        <time>2018-05-15T15:27:13.411Z</time>
      </trkpt>
      <trkpt lat="48.63372" lon="1.77038">
        <ele>159</ele>
        <time>2018-05-15T15:27:14.411Z</time>
      </trkpt>
      <trkpt lat="48.63402" lon="1.77126">
        <ele>155.2</ele>
        <time>2018-05-15T15:27:15.411Z</time>
      </trkpt>
      <trkpt lat="48.63402" lon="1.77232">
        <ele>149</ele>
        <time>2018-05-15T15:27:16.411Z</time>
      </trkpt>
      <trkpt lat="48.63415" lon="1.77396">
        <ele>143</ele>
        <time>2018-05-15T15:27:17.411Z</time>
      </trkpt>
      <trkpt lat="48.63454" lon="1.77449">
        <ele>142</ele>
        <time>2018-05-15T15:27:18.411Z</time>
      </trkpt>
      <trkpt lat="48.6352" lon="1.775">
        <ele>141.9</ele>
        <time>2018-05-15T15:27:19.411Z</time>
      </trkpt>
      <trkpt lat="48.63588" lon="1.775">
        <ele>142</ele>
        <time>2018-05-15T15:27:20.411Z</time>
      </trkpt>
    </trkseg>
  </trk>
</gpx>